Time;durP1;ratioP1;P1;durP2;ratioP2;P2;SDS_P1;SDS_P2;PMS_P1;PMS_P2;Temp;Humidity;BMP_temperature;BMP_pressure;BME280_temperature;BME280_humidity;BME280_pressure;Samples;Min_cycle;Max_cycle;Signal;HPM_P1;HPM_P2
2022/12/22 03:27:27;;;;;;;2.00;1.90;;;11.00;99.90;;;;;;5109395;28;20222;-82
2022/12/22 03:29:52;;;;;;;2.67;1.87;;;10.90;99.90;;;;;;5106793;28;20199;-82
2022/12/22 03:32:19;;;;;;;1.93;1.83;;;11.00;99.90;;;;;;5115039;28;20209;-82
2022/12/22 03:34:44;;;;;;;3.67;1.80;;;10.90;99.90;;;;;;5114499;28;20171;-82
2022/12/22 03:37:10;;;;;;;2.40;1.93;;;10.90;99.90;;;;;;5114744;28;20216;-82
2022/12/22 03:39:36;;;;;;;1.97;1.77;;;11.00;99.90;;;;;;5115671;28;20245;-82
2022/12/22 03:47:30;;;;;;;2.67;1.87;;;10.90;99.90;;;;;;5120914;28;20209;-86
2022/12/22 03:49:56;;;;;;;2.07;1.87;;;10.90;99.90;;;;;;5119613;28;20195;-86
2022/12/22 03:52:22;;;;;;;2.07;1.87;;;10.90;99.90;;;;;;5109993;28;20182;-81
2022/12/22 03:54:47;;;;;;;2.97;1.90;;;10.90;99.90;;;;;;5105878;28;20247;-83
2022/12/22 03:57:13;;;;;;;2.23;2.00;;;10.90;99.90;;;;;;5103006;28;20202;-82
2022/12/22 03:59:38;;;;;;;5.27;2.23;;;10.80;99.90;;;;;;5085023;28;20202;-83
2022/12/22 04:02:05;;;;;;;3.23;1.70;;;10.80;99.90;;;;;;5111622;28;20209;-83
2022/12/22 04:04:31;;;;;;;3.73;2.10;;;10.80;99.90;;;;;;5094704;28;20221;-84
2022/12/22 04:06:57;;;;;;;2.87;1.90;;;10.80;99.90;;;;;;5105615;28;20199;-84
2022/12/22 04:09:25;;;;;;;5.20;2.00;;;10.70;99.90;;;;;;5103604;28;20245;-80
2022/12/22 04:14:35;;;;;;;2.87;2.10;;;10.60;99.90;;;;;;5099971;28;20204;-80
2022/12/22 04:17:03;;;;;;;2.73;2.27;;;10.60;99.90;;;;;;5087984;28;20214;-84
2022/12/22 04:19:29;;;;;;;3.00;2.20;;;10.50;99.90;;;;;;5106420;28;20410;-83
2022/12/22 04:21:55;;;;;;;4.03;2.23;;;10.60;99.90;;;;;;5108548;28;20207;-83
2022/12/22 04:24:21;;;;;;;4.47;2.17;;;10.60;99.90;;;;;;5108080;28;20198;-85
2022/12/22 04:26:46;;;;;;;4.70;1.90;;;10.60;99.90;;;;;;5110589;28;20221;-82
2022/12/22 04:29:12;;;;;;;2.80;2.30;;;10.60;99.90;;;;;;5092105;28;20266;-81
2022/12/22 04:31:38;;;;;;;5.03;2.07;;;10.60;99.90;;;;;;5111584;28;20187;-82
2022/12/22 04:34:03;;;;;;;2.43;2.10;;;10.60;99.90;;;;;;5111881;28;20250;-81
2022/12/22 04:36:29;;;;;;;5.10;2.20;;;10.60;99.90;;;;;;5112141;28;20210;-84
2022/12/22 04:38:55;;;;;;;3.40;1.90;;;10.70;99.90;;;;;;5111853;28;20260;-84
2022/12/22 04:41:21;;;;;;;3.37;2.30;;;10.70;99.90;;;;;;5112026;28;20183;-83
2022/12/22 04:43:46;;;;;;;1.97;1.87;;;10.80;99.90;;;;;;5112429;28;20251;-85
2022/12/22 04:46:12;;;;;;;3.47;2.30;;;10.70;99.90;;;;;;5112482;28;20203;-85
2022/12/22 04:48:37;;;;;;;3.93;1.97;;;10.80;99.90;;;;;;5111088;28;20263;-83
2022/12/22 04:51:03;;;;;;;2.83;2.20;;;10.90;99.90;;;;;;5112537;28;20178;-84
2022/12/22 04:53:30;;;;;;;2.20;2.00;;;10.90;99.90;;;;;;5113281;28;20185;-83
2022/12/22 04:56:02;;;;;;;4.27;2.20;;;10.90;99.90;;;;;;5096707;28;20187;-85
2022/12/22 04:58:28;;;;;;;2.97;1.90;;;10.90;99.90;;;;;;5115603;28;20202;-82
2022/12/22 05:00:54;;;;;;;3.33;2.40;;;11.00;99.90;;;;;;5117717;28;20174;-85
2022/12/22 05:03:20;;;;;;;1.90;1.80;;;11.00;99.90;;;;;;5112679;28;20187;-84
2022/12/22 05:05:45;;;;;;;2.37;1.83;;;11.00;99.90;;;;;;5112256;28;20653;-83
2022/12/22 05:08:11;;;;;;;4.87;2.13;;;11.00;99.90;;;;;;5113321;28;20210;-80
2022/12/22 05:10:37;;;;;;;2.17;1.90;;;11.00;99.90;;;;;;5113055;28;20179;-86
2022/12/22 05:13:02;;;;;;;4.00;1.87;;;11.10;99.90;;;;;;5113627;28;20175;-85
2022/12/22 05:15:31;;;;;;;3.27;2.20;;;11.10;99.90;;;;;;5113596;28;20240;-83
2022/12/22 05:17:58;;;;;;;6.83;1.80;;;11.10;99.90;;;;;;5104237;28;20186;-85
2022/12/22 05:20:24;;;;;;;3.30;2.10;;;11.10;99.90;;;;;;5110761;28;20230;-85
2022/12/22 05:22:51;;;;;;;2.20;2.10;;;11.10;99.90;;;;;;5113631;28;20175;-85
2022/12/22 05:25:18;;;;;;;3.73;2.23;;;11.20;99.90;;;;;;5113555;28;20179;-85
2022/12/22 05:27:46;;;;;;;3.03;2.17;;;11.10;99.90;;;;;;5112560;28;20213;-83
2022/12/22 05:30:12;;;;;;;4.10;2.07;;;11.00;99.90;;;;;;5111421;28;20201;-83
2022/12/22 05:32:38;;;;;;;3.87;2.30;;;11.20;99.90;;;;;;5110154;28;20191;-86
2022/12/22 05:35:05;;;;;;;4.77;2.27;;;11.20;99.90;;;;;;5110776;28;20187;-84
2022/12/22 05:37:31;;;;;;;4.53;2.20;;;11.10;99.90;;;;;;5105034;28;20201;-85
2022/12/22 05:39:56;;;;;;;2.97;2.17;;;11.10;99.90;;;;;;5110556;28;20195;-83
2022/12/22 05:42:35;;;;;;;2.80;2.00;;;11.20;99.90;;;;;;5109757;28;20547;-81
2022/12/22 05:45:14;;;;;;;5.10;2.27;;;11.20;99.90;;;;;;5103300;28;20179;-85
2022/12/22 05:47:42;;;;;;;3.30;2.33;;;11.20;99.90;;;;;;5110366;28;20270;-85
2022/12/22 05:50:09;;;;;;;3.07;2.10;;;11.20;99.90;;;;;;5110688;28;20282;-84
2022/12/22 05:52:35;;;;;;;2.73;2.00;;;11.30;99.90;;;;;;5099563;28;20190;-84
2022/12/22 05:55:01;;;;;;;4.50;2.40;;;11.20;99.90;;;;;;5110726;28;20234;-83
2022/12/22 05:57:27;;;;;;;2.93;2.20;;;11.20;99.90;;;;;;5108811;28;20175;-82
2022/12/22 05:59:52;;;;;;;3.50;2.33;;;11.30;99.90;;;;;;5109565;28;20198;-85
2022/12/22 06:02:18;;;;;;;4.57;2.53;;;11.20;99.90;;;;;;5110257;28;20187;-84
2022/12/22 06:04:44;;;;;;;4.03;2.20;;;11.30;99.90;;;;;;5105514;28;20259;-84
2022/12/22 06:07:10;;;;;;;5.50;2.40;;;11.20;99.90;;;;;;5106695;28;20203;-83
2022/12/22 06:09:36;;;;;;;6.77;2.63;;;11.30;99.90;;;;;;5109184;28;20246;-83
2022/12/22 06:12:02;;;;;;;3.70;2.83;;;11.30;99.90;;;;;;5090683;28;20190;-84
2022/12/22 06:14:27;;;;;;;5.70;3.03;;;11.20;99.90;;;;;;5109728;28;20211;-82
2022/12/22 06:16:53;;;;;;;5.50;2.90;;;11.20;99.90;;;;;;5109338;28;20195;-86
2022/12/22 06:19:18;;;;;;;4.43;2.70;;;11.20;99.90;;;;;;5108997;28;20213;-86
2022/12/22 06:21:44;;;;;;;5.70;2.77;;;11.20;99.90;;;;;;5109049;28;20191;-83
2022/12/22 06:24:10;;;;;;;5.23;3.20;;;11.30;99.90;;;;;;5110885;28;20198;-85
2022/12/22 06:26:35;;;;;;;5.63;2.93;;;11.30;99.90;;;;;;5110697;28;20550;-83
2022/12/22 06:29:01;;;;;;;4.83;2.77;;;11.40;99.90;;;;;;5109810;28;20564;-84
2022/12/22 06:31:27;;;;;;;5.83;2.53;;;11.40;99.90;;;;;;5110101;28;20175;-83
2022/12/22 06:33:52;;;;;;;5.60;3.00;;;11.60;99.90;;;;;;5110136;28;20258;-84
2022/12/22 06:36:18;;;;;;;4.83;2.80;;;11.50;99.90;;;;;;5107998;28;20195;-84
2022/12/22 06:38:44;;;;;;;7.97;2.90;;;11.50;99.90;;;;;;5108509;28;20217;-84
2022/12/22 06:41:09;;;;;;;4.43;2.47;;;11.60;99.90;;;;;;5111427;28;20179;-83
2022/12/22 06:43:35;;;;;;;6.43;2.80;;;11.50;99.90;;;;;;5107101;28;20782;-82
2022/12/22 06:46:01;;;;;;;5.97;2.77;;;11.60;99.90;;;;;;5113318;28;20199;-83
2022/12/22 06:48:26;;;;;;;6.80;2.67;;;11.50;99.90;;;;;;5112720;28;20213;-85
2022/12/22 06:50:57;;;;;;;4.33;2.53;;;11.50;99.90;;;;;;5112573;28;20198;-83
2022/12/22 06:53:23;;;;;;;10.90;3.47;;;11.70;99.90;;;;;;5105945;28;20190;-86
2022/12/22 06:55:48;;;;;;;4.63;3.00;;;11.70;99.90;;;;;;5110024;28;20183;-84
2022/12/22 06:58:26;;;;;;;6.50;2.87;;;11.80;99.90;;;;;;5108972;28;20183;-84
2022/12/22 07:00:55;;;;;;;7.70;2.97;;;11.80;99.90;;;;;;5109241;28;20183;-84
2022/12/22 07:03:20;;;;;;;9.70;3.07;;;11.90;99.90;;;;;;5109806;28;20185;-87
2022/12/22 07:05:46;;;;;;;7.23;2.80;;;11.90;99.90;;;;;;5108954;28;20189;-86
2022/12/22 07:08:12;;;;;;;7.07;3.00;;;11.80;99.90;;;;;;5091475;28;20214;-85
2022/12/22 07:13:23;;;;;;;6.67;2.83;;;11.80;99.90;;;;;;5103025;28;20193;-84
2022/12/22 07:15:49;;;;;;;5.77;2.93;;;11.90;99.90;;;;;;5103805;28;20246;-84
2022/12/22 07:18:15;;;;;;;8.07;3.17;;;11.90;99.90;;;;;;5106451;28;20240;-85
2022/12/22 07:20:41;;;;;;;5.17;2.87;;;11.90;99.60;;;;;;5109879;28;20245;-86
2022/12/22 07:23:06;;;;;;;8.73;3.20;;;11.90;99.80;;;;;;5108418;28;20174;-83
2022/12/22 07:25:32;;;;;;;5.63;2.90;;;11.90;99.70;;;;;;5109484;28;20192;-84
2022/12/22 07:27:58;;;;;;;5.40;3.00;;;11.80;99.90;;;;;;5109162;28;20236;-85
2022/12/22 07:30:24;;;;;;;7.17;2.63;;;11.80;99.90;;;;;;5109294;28;20262;-84
2022/12/22 07:32:49;;;;;;;9.63;2.70;;;11.80;99.90;;;;;;5108839;28;20197;-86
2022/12/22 07:35:15;;;;;;;7.40;3.40;;;11.80;99.90;;;;;;5110324;28;20581;-86
2022/12/22 07:37:41;;;;;;;7.30;3.70;;;11.80;99.90;;;;;;5109703;28;20191;-84
2022/12/22 07:40:07;;;;;;;8.50;3.13;;;11.90;99.70;;;;;;5109795;28;20210;-87
2022/12/22 07:42:45;;;;;;;8.87;3.30;;;11.80;99.90;;;;;;5108430;28;20243;-84
2022/12/22 07:45:16;;;;;;;6.83;3.27;;;11.80;99.90;;;;;;5106354;28;20185;-85
2022/12/22 07:47:42;;;;;;;7.30;3.23;;;11.80;99.90;;;;;;5105425;28;20218;-83
2022/12/22 07:50:24;;;;;;;6.73;3.23;;;11.70;99.90;;;;;;5090863;28;20226;-86
2022/12/22 07:53:02;;;;;;;6.13;3.00;;;11.60;99.90;;;;;;5106009;28;20175;-85
2022/12/22 07:55:30;;;;;;;8.00;2.80;;;11.60;99.90;;;;;;5106246;28;20179;-84
2022/12/22 07:57:56;;;;;;;6.97;3.27;;;11.70;99.90;;;;;;5108379;28;20213;-84
2022/12/22 08:00:22;;;;;;;6.00;3.10;;;11.80;99.90;;;;;;5109395;28;20210;-85
2022/12/22 08:02:50;;;;;;;10.97;3.43;;;11.80;99.10;;;;;;5107847;28;20194;-85
2022/12/22 08:05:15;;;;;;;10.77;4.10;;;11.90;98.60;;;;;;5108413;28;20183;-86
2022/12/22 08:07:41;;;;;;;4.27;2.80;;;11.80;98.50;;;;;;5107078;28;20271;-85
2022/12/22 08:10:08;;;;;;;7.30;2.70;;;12.00;97.50;;;;;;5100745;28;20207;-80
2022/12/22 08:12:34;;;;;;;7.33;3.17;;;11.90;97.50;;;;;;5105701;28;20183;-86
2022/12/22 08:14:59;;;;;;;6.57;2.90;;;12.00;98.00;;;;;;5110716;28;20179;-86
2022/12/22 08:17:26;;;;;;;7.50;3.53;;;12.00;99.00;;;;;;5108714;28;20175;-86
2022/12/22 08:19:53;;;;;;;8.40;3.20;;;11.90;99.30;;;;;;5107049;28;20218;-86
2022/12/22 08:22:22;;;;;;;8.90;3.47;;;11.90;99.60;;;;;;5103726;28;20194;-85
2022/12/22 08:24:51;;;;;;;8.10;4.00;;;11.70;99.90;;;;;;5111479;28;20199;-86
2022/12/22 08:27:25;;;;;;;7.30;3.03;;;11.70;99.90;;;;;;5111785;28;20202;-86
2022/12/22 08:29:56;;;;;;;5.97;3.13;;;11.80;99.90;;;;;;5111008;28;20207;-87
2022/12/22 08:32:22;;;;;;;7.53;3.23;;;11.80;99.90;;;;;;5110876;28;20178;-87
2022/12/22 08:34:52;;;;;;;8.13;3.20;;;11.70;99.90;;;;;;5104785;28;20847;-88
2022/12/22 08:37:20;;;;;;;6.53;3.40;;;11.80;99.90;;;;;;5107504;28;20185;-85
2022/12/22 08:39:52;;;;;;;9.07;3.80;;;11.80;99.50;;;;;;5109834;28;20230;-87
2022/12/22 08:42:19;;;;;;;7.63;3.47;;;11.80;99.90;;;;;;5106428;28;20194;-87
2022/12/22 08:44:46;;;;;;;8.77;3.80;;;11.60;99.90;;;;;;5111831;28;20191;-87
2022/12/22 08:47:11;;;;;;;7.67;3.60;;;11.50;99.90;;;;;;5112724;28;20203;-85
2022/12/22 08:49:37;;;;;;;5.07;3.23;;;11.40;99.90;;;;;;5112638;28;20219;-85
2022/12/22 08:52:03;;;;;;;9.53;3.67;;;11.20;99.90;;;;;;5112976;28;20199;-85
2022/12/22 08:54:29;;;;;;;11.00;3.40;;;11.20;99.90;;;;;;5110882;28;20742;-87
2022/12/22 08:56:57;;;;;;;9.70;3.60;;;11.20;99.90;;;;;;5111072;28;20190;-84
2022/12/22 08:59:23;;;;;;;7.57;3.70;;;11.20;99.90;;;;;;5112347;28;20203;-84
2022/12/22 09:01:49;;;;;;;7.67;3.13;;;11.20;99.90;;;;;;5107734;28;20208;-85
2022/12/22 09:04:18;;;;;;;10.00;4.00;;;11.10;99.90;;;;;;5109531;28;20198;-83
2022/12/22 09:06:44;;;;;;;8.53;3.50;;;11.00;99.90;;;;;;5112259;28;20286;-87
2022/12/22 09:09:12;;;;;;;8.00;3.30;;;11.00;99.90;;;;;;5109750;28;20194;-85
2022/12/22 09:11:39;;;;;;;6.93;2.97;;;11.00;99.90;;;;;;5116366;28;20242;-84
2022/12/22 09:14:05;;;;;;;8.70;3.10;;;10.90;99.90;;;;;;5118723;28;20194;-87
2022/12/22 09:16:33;;;;;;;11.83;3.53;;;11.00;99.90;;;;;;5101002;28;20183;-83
2022/12/22 09:18:59;;;;;;;8.53;3.70;;;10.90;99.90;;;;;;5111608;28;20217;-86
2022/12/22 09:21:26;;;;;;;7.87;3.33;;;10.80;99.90;;;;;;5109546;28;20203;-83
2022/12/22 09:23:52;;;;;;;9.33;3.70;;;10.70;99.90;;;;;;5107751;28;20190;-85
2022/12/22 09:26:20;;;;;;;7.50;3.03;;;10.70;99.90;;;;;;5110401;28;20382;-83
2022/12/22 09:28:45;;;;;;;9.20;3.13;;;10.60;99.90;;;;;;5112209;28;20228;-87
2022/12/22 09:31:11;;;;;;;10.87;3.63;;;10.40;99.90;;;;;;5112836;28;20191;-87
2022/12/22 09:33:37;;;;;;;7.90;3.30;;;10.40;99.90;;;;;;5112805;28;20187;-85
2022/12/22 09:36:08;;;;;;;11.20;3.70;;;10.30;99.90;;;;;;5111523;28;20175;-85
2022/12/22 09:38:34;;;;;;;5.57;3.27;;;10.40;99.90;;;;;;5110788;28;20214;-85
2022/12/22 09:41:14;;;;;;;10.27;3.60;;;10.40;99.90;;;;;;5105466;28;20191;-83
2022/12/22 09:43:40;;;;;;;8.73;3.57;;;10.40;99.90;;;;;;5109803;28;20198;-86
2022/12/22 09:46:20;;;;;;;8.70;3.10;;;10.40;99.90;;;;;;5111646;28;20179;-85
2022/12/22 09:48:45;;;;;;;10.00;3.40;;;10.40;99.90;;;;;;5109052;28;20190;-87
2022/12/22 09:51:13;;;;;;;7.57;3.43;;;10.40;99.90;;;;;;5109905;28;20577;-86
2022/12/22 09:53:39;;;;;;;9.70;3.20;;;10.50;99.90;;;;;;5111127;28;20187;-86
2022/12/22 09:56:05;;;;;;;6.00;3.17;;;10.40;99.90;;;;;;5110873;28;20175;-87
2022/12/22 09:58:34;;;;;;;8.37;3.10;;;10.50;99.90;;;;;;5110040;28;20207;-88
2022/12/22 10:01:09;;;;;;;10.60;3.30;;;10.60;99.90;;;;;;5105240;28;20175;-86
2022/12/22 10:03:59;;;;;;;7.40;2.93;;;10.60;99.90;;;;;;5102104;28;20691;-85
2022/12/22 10:06:33;;;;;;;7.13;3.00;;;10.60;99.90;;;;;;5109233;28;20202;-83
2022/12/22 10:09:24;;;;;;;9.57;3.27;;;10.70;99.90;;;;;;5111259;28;20679;-85
2022/12/22 10:11:56;;;;;;;10.53;2.87;;;10.60;99.90;;;;;;5110793;28;20167;-84
2022/12/22 10:14:27;;;;;;;6.17;2.83;;;10.70;99.90;;;;;;5110478;28;20179;-84
2022/12/22 10:17:23;;;;;;;7.40;2.93;;;10.70;99.90;;;;;;5111053;28;20238;-88
2022/12/22 10:19:51;;;;;;;3.23;2.50;;;10.80;99.90;;;;;;5114426;28;20210;-90
2022/12/22 10:22:46;;;;;;;6.33;2.60;;;10.90;99.90;;;;;;5116097;28;20197;-86
2022/12/22 10:25:25;;;;;;;3.90;2.40;;;10.80;99.90;;;;;;5114898;28;20175;-89
2022/12/22 10:27:53;;;;;;;6.13;2.83;;;10.80;99.90;;;;;;5110739;28;20255;-86
2022/12/22 10:30:23;;;;;;;4.23;2.87;;;10.70;99.90;;;;;;5096077;28;20202;-84
2022/12/22 10:33:09;;;;;;;5.83;2.73;;;10.70;99.90;;;;;;5086655;28;20178;-88
2022/12/22 10:35:46;;;;;;;9.40;3.43;;;10.70;99.90;;;;;;5101958;28;20238;-86
2022/12/22 10:38:16;;;;;;;5.83;3.00;;;10.80;99.90;;;;;;5083366;28;20171;-88
2022/12/22 10:40:45;;;;;;;9.60;3.40;;;10.70;99.90;;;;;;5103493;28;20274;-87
2022/12/22 10:43:21;;;;;;;8.50;3.17;;;10.60;99.90;;;;;;5102991;28;20171;-85
2022/12/22 10:45:48;;;;;;;8.20;2.90;;;10.60;99.90;;;;;;5106244;28;20178;-85
2022/12/22 10:48:15;;;;;;;9.80;3.13;;;10.50;99.90;;;;;;5104362;28;20207;-85
2022/12/22 10:50:48;;;;;;;11.43;3.57;;;10.50;99.90;;;;;;5107593;28;20174;-84
2022/12/22 10:53:13;;;;;;;11.77;3.60;;;10.60;99.90;;;;;;5103511;28;20205;-84
2022/12/22 10:55:39;;;;;;;6.57;2.97;;;10.50;99.90;;;;;;5108916;28;20179;-84
2022/12/22 10:58:18;;;;;;;6.43;3.30;;;10.50;99.90;;;;;;5105046;28;20355;-85
2022/12/22 11:00:58;;;;;;;10.60;3.70;;;10.50;99.90;;;;;;5108702;28;20246;-86
2022/12/22 11:03:29;;;;;;;8.40;3.00;;;10.50;99.90;;;;;;5107943;28;20198;-85
2022/12/22 11:05:56;;;;;;;7.10;3.50;;;10.60;99.90;;;;;;5109318;28;20246;-89
2022/12/22 11:08:23;;;;;;;7.00;2.70;;;10.60;99.90;;;;;;5105814;28;20221;-85
2022/12/22 11:10:55;;;;;;;9.17;3.07;;;10.70;99.90;;;;;;5108662;28;20190;-91
2022/12/22 11:13:30;;;;;;;9.87;3.10;;;10.70;99.90;;;;;;5108831;28;20174;-86
2022/12/22 11:16:45;;;;;;;8.87;3.17;;;10.70;99.90;;;;;;5107444;28;20186;-89
2022/12/22 11:19:29;;;;;;;8.57;3.30;;;10.80;99.90;;;;;;5101579;28;20215;-86
2022/12/22 11:22:36;;;;;;;6.70;2.93;;;10.70;99.90;;;;;;5082803;28;20281;-84
2022/12/22 11:25:23;;;;;;;6.60;2.70;;;10.60;99.90;;;;;;5102721;28;20201;-84
2022/12/22 11:28:04;;;;;;;8.00;2.60;;;10.50;99.90;;;;;;5109655;28;20256;-84
2022/12/22 11:30:36;;;;;;;8.07;3.30;;;10.60;99.90;;;;;;5109056;28;20202;-86
2022/12/22 11:33:13;;;;;;;7.87;3.17;;;10.50;99.90;;;;;;5088456;28;20183;-86
2022/12/22 11:36:03;;;;;;;7.37;3.20;;;10.60;99.90;;;;;;5110620;28;20183;-88
2022/12/22 11:38:44;;;;;;;9.33;3.30;;;10.60;99.90;;;;;;5107373;28;20197;-90
2022/12/22 11:41:25;;;;;;;8.53;3.17;;;10.50;99.90;;;;;;5108111;28;20210;-89
2022/12/22 11:44:14;;;;;;;8.77;3.10;;;10.40;99.90;;;;;;5111596;28;20204;-87
2022/12/22 11:47:04;;;;;;;6.07;2.83;;;10.40;99.90;;;;;;5107698;28;20186;-88
2022/12/22 11:49:38;;;;;;;6.70;2.90;;;10.40;99.90;;;;;;5106542;28;20195;-85
2022/12/22 11:52:23;;;;;;;5.70;3.30;;;10.50;99.90;;;;;;5112849;28;20226;-86
2022/12/22 11:55:07;;;;;;;7.80;3.30;;;10.50;99.90;;;;;;5093269;28;20258;-86
2022/12/22 11:57:52;;;;;;;10.97;3.17;;;10.50;99.90;;;;;;5109508;28;20186;-87
2022/12/22 12:00:18;;;;;;;7.07;3.30;;;10.50;99.90;;;;;;5111804;28;20203;-90
2022/12/22 12:03:14;;;;;;;7.57;3.37;;;10.40;99.90;;;;;;5114599;28;20190;-89
2022/12/22 12:05:58;;;;;;;6.50;3.03;;;10.50;99.90;;;;;;5106775;28;20192;-88
2022/12/22 12:08:40;;;;;;;12.27;3.20;;;10.50;99.90;;;;;;5112802;28;20249;-86
2022/12/22 12:11:27;;;;;;;5.60;2.60;;;10.60;99.90;;;;;;5115224;28;20250;-87
2022/12/22 12:14:25;;;;;;;5.90;3.20;;;10.60;99.90;;;;;;5114040;28;20179;-86
2022/12/22 12:16:58;;;;;;;6.23;2.97;;;10.50;99.90;;;;;;5092859;28;20211;-90
2022/12/22 12:19:41;;;;;;;5.53;3.10;;;10.60;99.90;;;;;;5103025;28;20203;-89
2022/12/22 12:22:14;;;;;;;8.63;3.40;;;10.60;99.90;;;;;;5099830;28;20218;-87
2022/12/22 12:24:52;;;;;;;5.17;3.13;;;10.60;99.90;;;;;;5080307;28;20198;-86
2022/12/22 12:27:30;;;;;;;3.77;2.73;;;10.60;99.90;;;;;;5099284;28;20289;-90
2022/12/22 12:30:05;;;;;;;10.37;3.70;;;10.60;99.90;;;;;;5097303;28;20241;-89
2022/12/22 12:32:49;;;;;;;6.83;3.00;;;10.50;99.90;;;;;;5101683;28;20286;-89
2022/12/22 12:35:26;;;;;;;5.40;3.33;;;10.60;99.90;;;;;;5086156;28;20191;-86
2022/12/22 12:38:00;;;;;;;8.40;3.70;;;10.60;99.90;;;;;;5102646;28;20190;-84
2022/12/22 12:40:49;;;;;;;11.53;3.67;;;10.70;99.90;;;;;;5102532;28;20306;-88
2022/12/22 12:43:16;;;;;;;8.17;3.60;;;10.70;99.90;;;;;;5093073;28;20190;-89
2022/12/22 12:45:44;;;;;;;7.37;3.93;;;10.70;99.90;;;;;;5101467;28;20187;-88
2022/12/22 12:48:36;;;;;;;6.87;3.63;;;10.80;99.90;;;;;;5099421;28;20215;-86
2022/12/22 12:51:23;;;;;;;10.63;3.50;;;10.80;99.90;;;;;;5099701;28;20187;-88
2022/12/22 12:54:27;;;;;;;12.70;3.77;;;10.80;99.90;;;;;;5095353;28;20198;-90
2022/12/22 12:57:14;;;;;;;9.10;3.33;;;10.90;99.90;;;;;;5094847;28;20213;-87
2022/12/22 12:59:40;;;;;;;13.33;4.20;;;10.90;99.90;;;;;;5079368;28;20282;-89
2022/12/22 13:02:27;;;;;;;11.67;3.83;;;10.90;99.90;;;;;;5093440;28;20221;-90
2022/12/22 13:05:27;;;;;;;10.43;4.07;;;10.80;99.90;;;;;;5099819;28;20191;-88
2022/12/22 13:08:11;;;;;;;7.93;3.77;;;10.80;99.90;;;;;;5094612;28;20203;-87
2022/12/22 13:10:40;;;;;;;12.23;4.67;;;10.80;99.90;;;;;;5096529;28;20213;-91
2022/12/22 13:13:29;;;;;;;12.83;4.80;;;10.80;99.90;;;;;;5097167;28;20190;-88
2022/12/22 13:16:00;;;;;;;9.10;3.73;;;10.80;99.90;;;;;;5095856;28;20230;-88
2022/12/22 13:18:29;;;;;;;10.40;3.67;;;10.70;99.90;;;;;;5105937;28;20199;-89
2022/12/22 13:21:01;;;;;;;11.10;4.43;;;10.80;99.90;;;;;;5099631;28;20232;-88
2022/12/22 13:23:43;;;;;;;10.80;5.00;;;10.80;99.90;;;;;;5102782;28;20173;-89
2022/12/22 13:26:13;;;;;;;16.57;4.70;;;10.80;99.90;;;;;;5095413;28;20219;-87
2022/12/22 13:28:45;;;;;;;15.47;5.10;;;10.90;99.90;;;;;;5099127;28;20222;-86
2022/12/22 13:31:32;;;;;;;13.13;4.17;;;10.90;99.90;;;;;;5097471;28;20175;-88
2022/12/22 13:34:21;;;;;;;17.27;5.07;;;10.90;99.90;;;;;;5093874;28;20269;-86
2022/12/22 13:36:49;;;;;;;14.00;4.83;;;10.90;99.90;;;;;;5096707;28;20580;-87
2022/12/22 13:39:15;;;;;;;14.43;5.23;;;11.00;99.90;;;;;;5093604;28;20200;-86
2022/12/22 13:41:45;;;;;;;15.80;5.03;;;11.00;99.90;;;;;;5099173;28;20187;-87
2022/12/22 13:44:16;;;;;;;14.20;5.00;;;10.90;99.90;;;;;;5092796;28;20185;-86
2022/12/22 13:46:42;;;;;;;16.87;5.07;;;10.90;99.90;;;;;;5094308;28;20222;-84
2022/12/22 13:49:14;;;;;;;16.23;5.00;;;10.90;99.90;;;;;;5093011;28;20757;-87
2022/12/22 13:51:40;;;;;;;16.87;5.50;;;10.90;99.90;;;;;;5094756;28;20193;-90
2022/12/22 13:54:39;;;;;;;12.30;4.97;;;10.90;99.90;;;;;;5093977;28;20179;-85
2022/12/22 13:57:21;;;;;;;14.87;5.10;;;11.00;99.90;;;;;;5031159;28;20214;-86
2022/12/22 13:59:50;;;;;;;15.10;5.30;;;11.00;99.90;;;;;;5094529;28;20219;-86
2022/12/22 14:02:19;;;;;;;16.30;5.20;;;10.90;99.90;;;;;;5099899;28;20243;-84
2022/12/22 14:05:05;;;;;;;14.93;5.60;;;10.90;99.90;;;;;;5099224;28;20188;-86
2022/12/22 14:07:30;;;;;;;10.83;4.17;;;10.90;99.90;;;;;;5098195;28;20248;-89
2022/12/22 14:09:56;;;;;;;14.73;5.20;;;11.00;99.90;;;;;;5096160;28;20216;-88
2022/12/22 14:12:35;;;;;;;12.37;5.10;;;10.90;99.90;;;;;;5097428;28;20187;-88
2022/12/22 14:15:02;;;;;;;16.30;4.60;;;11.00;99.90;;;;;;5098975;28;20181;-88
2022/12/22 14:17:34;;;;;;;11.53;5.30;;;11.00;99.90;;;;;;5095971;28;20186;-87
2022/12/22 14:20:11;;;;;;;11.47;4.43;;;11.10;99.90;;;;;;5093008;28;20233;-88
2022/12/22 14:22:43;;;;;;;11.23;4.33;;;11.10;99.90;;;;;;5092580;28;20307;-88
2022/12/22 14:25:19;;;;;;;12.47;4.50;;;11.00;99.90;;;;;;5098980;28;20191;-90
2022/12/22 14:27:51;;;;;;;11.77;4.30;;;11.10;99.90;;;;;;5098004;28;20199;-89
2022/12/22 14:30:19;;;;;;;12.00;4.33;;;11.00;99.90;;;;;;5098520;28;20199;-88
2022/12/22 14:32:50;;;;;;;11.67;4.90;;;11.00;99.90;;;;;;5087675;28;20199;-89
2022/12/22 14:35:16;;;;;;;12.30;4.17;;;10.90;99.90;;;;;;5092673;28;20184;-87
2022/12/22 14:37:41;;;;;;;9.27;4.13;;;10.90;99.90;;;;;;5094399;28;20190;-87
2022/12/22 14:40:27;;;;;;;13.67;4.63;;;11.00;99.90;;;;;;5090049;28;20203;-87
2022/12/22 14:42:53;;;;;;;10.37;4.50;;;11.20;99.90;;;;;;5090377;28;20209;-90
2022/12/22 14:45:19;;;;;;;10.77;4.10;;;11.30;99.90;;;;;;5093922;28;20179;-89
2022/12/22 14:47:45;;;;;;;13.87;4.87;;;11.30;99.90;;;;;;5096945;28;20226;-88
2022/12/22 14:50:23;;;;;;;15.17;4.83;;;11.30;99.90;;;;;;5096733;28;20233;-87
2022/12/22 14:52:57;;;;;;;12.67;4.10;;;11.30;99.90;;;;;;5084695;28;20274;-86
2022/12/22 14:55:27;;;;;;;11.73;4.83;;;11.40;99.90;;;;;;5095874;28;20326;-88
2022/12/22 14:58:22;;;;;;;9.37;5.10;;;11.40;99.90;;;;;;5095865;28;20191;-86
2022/12/22 15:01:08;;;;;;;14.80;5.27;;;11.40;99.90;;;;;;5091781;28;20207;-85
2022/12/22 15:03:36;;;;;;;16.57;5.80;;;11.40;99.90;;;;;;5093342;28;20196;-86
2022/12/22 15:06:27;;;;;;;13.37;5.17;;;11.30;99.90;;;;;;5095123;28;20199;-86
2022/12/22 15:09:13;;;;;;;13.07;5.13;;;11.10;99.90;;;;;;5089275;28;20209;-85
2022/12/22 15:11:56;;;;;;;14.90;4.83;;;11.20;99.90;;;;;;5077621;28;20218;-86
2022/12/22 15:14:28;;;;;;;18.47;5.17;;;11.20;99.90;;;;;;5096001;28;20192;-89
2022/12/22 15:16:56;;;;;;;11.87;4.70;;;11.10;99.90;;;;;;5091004;28;20242;-88
2022/12/22 15:19:22;;;;;;;18.23;5.30;;;11.30;99.90;;;;;;5097034;28;20205;-87
2022/12/22 15:21:49;;;;;;;14.17;5.03;;;11.30;99.90;;;;;;5097410;28;20292;-89
2022/12/22 15:24:17;;;;;;;10.73;4.83;;;11.10;99.90;;;;;;5100694;28;20206;-87
2022/12/22 15:26:44;;;;;;;9.20;5.10;;;11.00;99.90;;;;;;5104642;28;20215;-90
2022/12/22 15:29:10;;;;;;;13.40;4.73;;;11.00;99.90;;;;;;5098956;28;20198;-84
2022/12/22 15:31:39;;;;;;;13.53;5.20;;;11.00;99.90;;;;;;5103386;28;20205;-84
2022/12/22 15:34:13;;;;;;;15.07;5.20;;;11.00;99.90;;;;;;5098936;28;20163;-88
2022/12/22 15:36:38;;;;;;;9.60;4.67;;;11.00;99.90;;;;;;5101596;28;20174;-87
2022/12/22 15:39:12;;;;;;;12.23;4.87;;;10.90;99.90;;;;;;5100227;28;20276;-89
2022/12/22 15:41:38;;;;;;;10.70;4.53;;;10.90;99.90;;;;;;5099189;28;20195;-87
2022/12/22 15:44:04;;;;;;;13.70;4.30;;;10.90;99.90;;;;;;5105535;28;20186;-86
2022/12/22 15:46:30;;;;;;;14.70;4.37;;;11.00;99.90;;;;;;5104600;28;20208;-89
2022/12/22 15:48:56;;;;;;;8.03;4.23;;;11.00;99.90;;;;;;5105496;28;20199;-89
2022/12/22 15:51:25;;;;;;;7.90;3.83;;;11.00;99.90;;;;;;5107595;28;20183;-88
2022/12/22 15:53:53;;;;;;;7.77;4.20;;;10.80;99.90;;;;;;5094795;28;20176;-86
2022/12/22 15:56:21;;;;;;;10.60;4.40;;;10.70;99.90;;;;;;5102691;28;21553;-89
2022/12/22 15:58:47;;;;;;;13.83;4.40;;;10.80;99.90;;;;;;5102030;28;20215;-89
2022/12/22 16:01:13;;;;;;;11.87;4.10;;;10.80;99.90;;;;;;5100599;28;20175;-87
2022/12/22 16:03:39;;;;;;;13.53;4.40;;;10.70;99.90;;;;;;5099921;28;20198;-85
2022/12/22 16:06:07;;;;;;;10.03;4.57;;;10.70;99.90;;;;;;5101816;28;20202;-88
2022/12/22 16:08:37;;;;;;;12.23;4.60;;;10.70;99.90;;;;;;5101610;28;20230;-87
2022/12/22 16:11:04;;;;;;;8.67;4.17;;;10.70;99.90;;;;;;5099263;28;20287;-88
2022/12/22 16:13:30;;;;;;;11.37;4.67;;;10.70;99.90;;;;;;5100593;28;20191;-87
2022/12/22 16:15:56;;;;;;;9.03;4.93;;;10.60;99.90;;;;;;5097168;28;20191;-87
2022/12/22 16:18:22;;;;;;;11.23;4.47;;;10.60;99.90;;;;;;5100921;28;20277;-84
2022/12/22 16:20:49;;;;;;;13.07;4.53;;;10.50;99.90;;;;;;5098383;28;20221;-87
2022/12/22 16:23:21;;;;;;;13.93;5.00;;;10.40;99.90;;;;;;5087599;28;20251;-87
2022/12/22 16:25:48;;;;;;;13.50;5.00;;;10.40;99.90;;;;;;5102217;28;20182;-86
2022/12/22 16:28:21;;;;;;;12.60;4.50;;;10.40;99.90;;;;;;5093796;28;20234;-85
2022/12/22 16:30:47;;;;;;;14.37;4.70;;;10.60;99.90;;;;;;5097609;28;20195;-87
2022/12/22 16:33:14;;;;;;;10.43;4.13;;;10.50;99.90;;;;;;5095496;28;20191;-86
2022/12/22 16:35:40;;;;;;;12.73;4.73;;;10.50;99.90;;;;;;5098274;28;20857;-86
2022/12/22 16:38:06;;;;;;;11.83;4.87;;;10.50;99.90;;;;;;5099155;28;20183;-84
2022/12/22 16:40:38;;;;;;;13.17;4.67;;;10.50;99.90;;;;;;5101156;28;20190;-86